Time;durP1;ratioP1;P1;durP2;ratioP2;P2;SDS_P1;SDS_P2;PMS_P1;PMS_P2;Temp;Humidity;BMP_temperature;BMP_pressure;BME280_temperature;BME280_humidity;BME280_pressure;Samples;Min_cycle;Max_cycle;Signal;HPM_P1;HPM_P2
2022/10/27 00:00:30;;;;;;;3.30;2.03;;;13.80;99.90;;;;;;5014909;28;20017;-74
2022/10/27 00:02:55;;;;;;;7.85;2.97;;;13.80;99.90;;;;;;4996539;28;20072;-75
2022/10/27 00:05:21;;;;;;;8.38;1.92;;;13.80;99.90;;;;;;5014258;28;20018;-74
2022/10/27 00:07:48;;;;;;;4.18;2.13;;;13.80;99.90;;;;;;4996800;28;20022;-74
2022/10/27 00:10:15;;;;;;;6.30;1.90;;;13.80;99.90;;;;;;5014194;28;20026;-75
2022/10/27 00:12:41;;;;;;;4.88;2.08;;;13.90;99.90;;;;;;5014101;28;20068;-74
2022/10/27 00:15:07;;;;;;;5.85;2.30;;;13.90;99.90;;;;;;5014156;28;20026;-74
2022/10/27 00:17:33;;;;;;;7.10;2.13;;;13.90;99.90;;;;;;4996431;28;20164;-74
2022/10/27 00:19:59;;;;;;;4.97;2.38;;;13.90;99.90;;;;;;5013922;28;20501;-75
2022/10/27 00:22:24;;;;;;;24.02;2.50;;;13.80;99.90;;;;;;5013811;28;20093;-74
2022/10/27 00:24:50;;;;;;;3.63;2.17;;;13.80;99.90;;;;;;5013923;28;20026;-74
2022/10/27 00:27:15;;;;;;;4.60;2.17;;;13.80;99.90;;;;;;4996314;28;20026;-74
2022/10/27 00:29:41;;;;;;;5.45;1.75;;;13.80;99.90;;;;;;5013852;28;20022;-74
2022/10/27 00:32:07;;;;;;;9.65;2.40;;;13.80;99.90;;;;;;4996136;28;20025;-74
2022/10/27 00:34:33;;;;;;;6.10;2.42;;;13.70;99.90;;;;;;5013447;28;20033;-75
2022/10/27 00:36:58;;;;;;;6.80;1.92;;;13.80;99.90;;;;;;5013937;28;20466;-74
2022/10/27 00:39:24;;;;;;;4.18;2.15;;;13.70;99.90;;;;;;4996199;28;20045;-74
2022/10/27 00:41:49;;;;;;;4.25;2.22;;;13.70;99.90;;;;;;5013653;28;20026;-75
2022/10/27 00:44:36;;;;;;;10.65;2.05;;;13.70;99.90;;;;;;4996048;28;20044;-74
2022/10/27 00:47:30;;;;;;;4.60;1.98;;;13.70;99.90;;;;;;5013752;28;20485;-75
2022/10/27 00:50:12;;;;;;;5.30;2.22;;;13.60;99.90;;;;;;4995910;28;20453;-74
2022/10/27 00:52:43;;;;;;;4.82;2.10;;;13.60;99.90;;;;;;4995975;28;20451;-74
2022/10/27 00:55:19;;;;;;;5.70;2.45;;;13.60;99.90;;;;;;5013693;28;20026;-77
2022/10/27 00:57:49;;;;;;;9.80;2.42;;;13.50;99.90;;;;;;4995842;28;20459;-74
2022/10/27 01:00:15;;;;;;;5.18;1.77;;;13.50;99.90;;;;;;5014000;28;20105;-75
2022/10/27 01:02:41;;;;;;;11.90;1.83;;;13.50;99.90;;;;;;5014436;28;20102;-74
2022/10/27 01:05:17;;;;;;;9.43;3.05;;;13.40;99.90;;;;;;5013419;28;20026;-74
2022/10/27 01:07:45;;;;;;;10.57;2.90;;;13.40;99.90;;;;;;4995796;28;20025;-75
2022/10/27 01:10:11;;;;;;;4.85;1.90;;;13.40;99.90;;;;;;5013371;28;20429;-75
2022/10/27 01:12:38;;;;;;;3.17;1.88;;;13.30;99.90;;;;;;5013753;28;20436;-74
2022/10/27 01:15:04;;;;;;;5.57;1.85;;;13.30;99.90;;;;;;4995984;28;20029;-74
2022/10/27 01:17:48;;;;;;;6.03;2.17;;;13.30;99.90;;;;;;4995813;28;20058;-74
2022/10/27 01:20:50;;;;;;;6.70;2.20;;;13.30;99.90;;;;;;5013268;28;20061;-74
2022/10/27 01:23:51;;;;;;;10.38;3.08;;;13.20;99.90;;;;;;4995643;28;20401;-74
2022/10/27 01:26:32;;;;;;;5.78;2.83;;;13.20;99.90;;;;;;5007410;28;20497;-74
2022/10/27 01:29:07;;;;;;;4.28;1.95;;;13.10;99.90;;;;;;4995592;28;20022;-74
2022/10/27 01:31:56;;;;;;;7.72;2.17;;;13.10;99.90;;;;;;5013295;28;20037;-74
2022/10/27 01:34:29;;;;;;;8.15;3.33;;;13.10;99.90;;;;;;5013163;28;20064;-74
2022/10/27 01:37:04;;;;;;;6.32;2.15;;;13.10;99.90;;;;;;5013235;28;20025;-74
2022/10/27 01:39:37;;;;;;;12.48;2.65;;;13.10;99.90;;;;;;5013196;28;20026;-75
2022/10/27 01:42:08;;;;;;;5.40;2.00;;;13.10;99.90;;;;;;5013729;28;20026;-74
2022/10/27 01:44:47;;;;;;;6.68;2.72;;;13.10;99.90;;;;;;5013129;28;20022;-74
2022/10/27 01:47:14;;;;;;;5.63;1.58;;;13.20;99.90;;;;;;5015811;28;20160;-74
2022/10/27 01:49:41;;;;;;;4.63;1.60;;;13.20;99.90;;;;;;5016694;28;20117;-74
2022/10/27 01:52:35;;;;;;;4.53;1.63;;;13.20;99.90;;;;;;5016820;28;20030;-74
2022/10/27 01:55:01;;;;;;;8.63;2.13;;;13.20;99.90;;;;;;5016790;28;20534;-74
2022/10/27 01:57:31;;;;;;;6.50;2.22;;;13.20;99.90;;;;;;5016670;28;20109;-74
2022/10/27 02:00:06;;;;;;;4.97;2.30;;;13.20;99.90;;;;;;5016681;28;20037;-74
2022/10/27 02:02:47;;;;;;;6.03;2.17;;;13.20;99.90;;;;;;4998816;28;20026;-74
2022/10/27 02:05:20;;;;;;;7.57;1.80;;;13.30;99.90;;;;;;5016680;28;20133;-74
2022/10/27 02:08:08;;;;;;;4.00;1.80;;;13.30;99.90;;;;;;4998875;28;20026;-74
2022/10/27 02:10:59;;;;;;;6.10;1.73;;;13.30;99.90;;;;;;5016895;28;20149;-74
2022/10/27 02:13:25;;;;;;;8.75;1.77;;;13.30;99.90;;;;;;5015685;28;20121;-74
2022/10/27 02:15:59;;;;;;;6.55;2.25;;;13.40;99.90;;;;;;5016850;28;20107;-74
2022/10/27 02:18:58;;;;;;;6.15;1.73;;;13.40;99.90;;;;;;5016839;28;20022;-74
2022/10/27 02:21:24;;;;;;;5.38;1.85;;;13.40;99.90;;;;;;5016137;28;20030;-74
2022/10/27 02:23:52;;;;;;;5.65;1.83;;;13.30;99.90;;;;;;5016104;28;20018;-74
2022/10/27 02:26:17;;;;;;;7.57;1.95;;;13.30;99.90;;;;;;5016100;28;20108;-74
2022/10/27 02:28:56;;;;;;;7.10;2.33;;;13.40;99.90;;;;;;4998667;28;20049;-72
2022/10/27 02:31:29;;;;;;;5.22;2.13;;;13.30;99.90;;;;;;5015980;28;20036;-72
2022/10/27 02:33:56;;;;;;;6.93;2.05;;;13.30;99.90;;;;;;5015951;28;20076;-72
2022/10/27 02:36:21;;;;;;;10.02;2.47;;;13.30;99.90;;;;;;5016033;28;20025;-73
2022/10/27 02:38:47;;;;;;;8.95;1.98;;;13.30;99.90;;;;;;5016032;28;20056;-73
2022/10/27 02:41:13;;;;;;;3.35;1.38;;;13.30;99.90;;;;;;5015833;28;20040;-73
2022/10/27 02:43:38;;;;;;;8.70;2.28;;;13.30;99.90;;;;;;5016326;28;20092;-73
2022/10/27 02:46:04;;;;;;;6.93;2.17;;;13.20;99.90;;;;;;5015788;28;20026;-72
2022/10/27 02:48:33;;;;;;;6.18;2.20;;;13.30;99.90;;;;;;5015637;28;20497;-72
2022/10/27 02:50:58;;;;;;;4.68;1.75;;;16.30;99.90;;;;;;4998247;28;20390;-73
2022/10/27 02:53:27;;;;;;;6.22;2.22;;;13.20;99.90;;;;;;5015515;28;20024;-72
2022/10/27 02:55:52;;;;;;;7.55;2.05;;;13.20;99.90;;;;;;5015547;28;20036;-73
2022/10/27 02:58:18;;;;;;;6.50;2.38;;;13.20;99.90;;;;;;5015327;28;20034;-72
2022/10/27 03:00:43;;;;;;;5.65;2.13;;;13.20;99.90;;;;;;5015393;28;20072;-73
2022/10/27 03:03:09;;;;;;;6.93;2.22;;;13.10;99.90;;;;;;5015460;28;20014;-72
2022/10/27 03:05:34;;;;;;;7.07;2.17;;;13.20;99.90;;;;;;4998922;28;20029;-72
2022/10/27 03:08:00;;;;;;;7.05;1.80;;;13.20;99.90;;;;;;4997873;28;20022;-73
2022/10/27 03:10:25;;;;;;;7.97;2.70;;;13.10;99.90;;;;;;5015308;28;20050;-73
2022/10/27 03:12:51;;;;;;;6.35;1.48;;;13.10;99.90;;;;;;5015340;28;20050;-72
2022/10/27 03:15:16;;;;;;;7.57;1.98;;;13.10;99.90;;;;;;4997664;28;20018;-73
2022/10/27 03:17:51;;;;;;;6.40;1.50;;;13.20;99.90;;;;;;5015177;28;20026;-72
2022/10/27 03:20:17;;;;;;;10.02;2.40;;;13.10;99.90;;;;;;5015679;28;20061;-72
2022/10/27 03:22:42;;;;;;;4.57;1.50;;;13.10;99.90;;;;;;5015502;28;20057;-72
2022/10/27 03:25:10;;;;;;;6.70;2.05;;;13.10;99.90;;;;;;5015147;28;20022;-72
2022/10/27 03:27:42;;;;;;;7.07;1.57;;;13.10;99.90;;;;;;5015105;28;20045;-72
2022/10/27 03:30:13;;;;;;;4.95;1.60;;;13.10;99.90;;;;;;5015127;28;20026;-72
2022/10/27 03:32:39;;;;;;;6.82;2.03;;;13.10;99.90;;;;;;5015059;28;20018;-72
2022/10/27 03:35:06;;;;;;;3.20;1.45;;;13.10;99.90;;;;;;5014821;28;20029;-73
2022/10/27 03:37:31;;;;;;;7.70;1.40;;;13.10;99.90;;;;;;5014806;28;20056;-72
2022/10/27 03:39:57;;;;;;;9.55;2.03;;;13.10;99.90;;;;;;5014563;28;20030;-72
2022/10/27 03:42:22;;;;;;;6.15;2.20;;;13.10;99.90;;;;;;5014659;28;20030;-72
2022/10/27 03:44:48;;;;;;;7.90;2.08;;;13.10;99.90;;;;;;4997161;28;20024;-72
2022/10/27 03:47:13;;;;;;;7.22;2.30;;;13.10;99.90;;;;;;5015099;28;20076;-73
2022/10/27 03:49:39;;;;;;;6.05;1.50;;;13.10;99.90;;;;;;5014491;28;20056;-73
2022/10/27 03:52:05;;;;;;;5.30;1.65;;;13.10;99.90;;;;;;5015068;28;20469;-73
2022/10/27 03:54:33;;;;;;;6.88;1.83;;;13.10;99.90;;;;;;4996904;28;20061;-72
2022/10/27 03:56:58;;;;;;;5.05;1.50;;;13.10;99.90;;;;;;5014433;28;20105;-72
2022/10/27 03:59:24;;;;;;;7.40;1.40;;;13.10;99.90;;;;;;5014992;28;20061;-73
2022/10/27 04:01:49;;;;;;;5.85;1.33;;;13.10;99.90;;;;;;5014222;28;20053;-72
2022/10/27 04:04:15;;;;;;;7.60;1.98;;;13.10;99.90;;;;;;4996886;28;20018;-73
2022/10/27 04:06:41;;;;;;;6.05;1.25;;;13.00;99.90;;;;;;5014257;28;20077;-72
2022/10/27 04:09:06;;;;;;;3.22;1.30;;;13.00;99.90;;;;;;5013635;28;20097;-72
2022/10/27 04:11:32;;;;;;;6.22;1.40;;;13.10;99.90;;;;;;4996658;28;20018;-72
2022/10/27 04:13:57;;;;;;;12.57;1.40;;;13.10;99.90;;;;;;5014054;28;20497;-73
2022/10/27 04:16:23;;;;;;;7.95;1.38;;;13.00;99.90;;;;;;4996414;28;20145;-72
2022/10/27 04:18:49;;;;;;;6.82;1.20;;;13.00;99.90;;;;;;4996603;28;20022;-72
2022/10/27 04:21:15;;;;;;;5.60;1.60;;;13.00;99.90;;;;;;5014019;28;20022;-72
2022/10/27 04:23:40;;;;;;;4.53;1.17;;;13.00;99.90;;;;;;5013988;28;20028;-73
2022/10/27 04:26:06;;;;;;;4.90;1.33;;;13.00;99.90;;;;;;5013843;28;20040;-72
2022/10/27 04:28:32;;;;;;;3.83;1.27;;;12.90;99.90;;;;;;4996253;28;20065;-72
2022/10/27 04:30:57;;;;;;;7.93;1.17;;;13.00;99.90;;;;;;5014505;28;20030;-72
2022/10/27 04:33:23;;;;;;;6.30;1.95;;;12.90;99.90;;;;;;4996202;28;20030;-73
2022/10/27 04:35:48;;;;;;;4.10;1.20;;;12.90;99.90;;;;;;4996185;28;20117;-72
2022/10/27 04:38:14;;;;;;;7.18;1.75;;;13.00;99.90;;;;;;4996136;28;20033;-72
2022/10/27 04:40:40;;;;;;;6.03;1.10;;;13.00;99.90;;;;;;5013781;28;20037;-73
2022/10/27 04:43:06;;;;;;;5.82;1.38;;;13.00;99.90;;;;;;4996128;28;20060;-72
2022/10/27 04:45:35;;;;;;;13.98;2.10;;;13.00;99.90;;;;;;4996169;28;20393;-72
2022/10/27 04:48:00;;;;;;;8.43;1.13;;;13.00;99.90;;;;;;4995903;28;20125;-72
2022/10/27 04:50:26;;;;;;;1.85;1.00;;;13.00;99.90;;;;;;5013708;28;20065;-74
2022/10/27 04:53:00;;;;;;;5.85;0.77;;;13.00;99.90;;;;;;4995981;28;20021;-73
2022/10/27 04:55:27;;;;;;;5.78;1.42;;;13.00;99.90;;;;;;5013476;28;20025;-73
2022/10/27 04:57:54;;;;;;;6.85;1.83;;;13.00;99.90;;;;;;5013663;28;20029;-73
2022/10/27 05:00:19;;;;;;;4.57;1.13;;;13.10;99.90;;;;;;5013383;28;20439;-73
2022/10/27 05:02:58;;;;;;;13.52;1.33;;;13.10;99.90;;;;;;4995906;28;20018;-73
2022/10/27 05:05:25;;;;;;;3.85;1.63;;;13.10;99.90;;;;;;5013525;28;20428;-73
2022/10/27 05:07:56;;;;;;;4.25;0.95;;;13.10;99.90;;;;;;5013490;28;20533;-73
2022/10/27 05:10:23;;;;;;;2.25;0.88;;;13.10;99.90;;;;;;4995773;28;20476;-73
2022/10/27 05:12:48;;;;;;;2.05;0.77;;;13.10;99.90;;;;;;4995705;28;20025;-73
2022/10/27 05:15:14;;;;;;;4.13;0.75;;;13.20;99.90;;;;;;5013371;28;20022;-73
2022/10/27 05:17:40;;;;;;;5.90;1.10;;;13.20;99.90;;;;;;4995746;28;20076;-73
2022/10/27 05:20:06;;;;;;;3.40;1.02;;;13.20;99.90;;;;;;5014173;28;20046;-73
2022/10/27 05:22:33;;;;;;;2.13;0.70;;;13.20;99.90;;;;;;5017268;28;20022;-74
2022/10/27 05:24:58;;;;;;;7.88;0.90;;;13.20;99.90;;;;;;5017607;28;20029;-74
2022/10/27 05:27:24;;;;;;;7.05;1.20;;;13.40;99.90;;;;;;5017360;28;20489;-73
2022/10/27 05:29:49;;;;;;;1.77;0.63;;;13.20;99.90;;;;;;5017125;28;20018;-73
2022/10/27 05:32:15;;;;;;;7.57;1.05;;;13.20;99.90;;;;;;5017085;28;20034;-73
2022/10/27 05:34:40;;;;;;;7.60;0.68;;;13.20;99.90;;;;;;4999536;28;20018;-73
2022/10/27 05:37:06;;;;;;;3.60;0.73;;;13.20;99.90;;;;;;5017079;28;20022;-73
2022/10/27 05:39:32;;;;;;;4.55;0.70;;;13.20;99.90;;;;;;5017021;28;20485;-73
2022/10/27 05:41:57;;;;;;;3.58;0.73;;;13.10;99.90;;;;;;4999279;28;20392;-73
2022/10/27 05:44:23;;;;;;;2.08;0.75;;;13.10;99.90;;;;;;4999160;28;20109;-73
2022/10/27 05:46:48;;;;;;;4.97;0.65;;;13.10;99.90;;;;;;5016869;28;20547;-73
2022/10/27 05:49:14;;;;;;;6.45;0.93;;;13.10;99.90;;;;;;4999184;28;20061;-73
2022/10/27 05:51:39;;;;;;;6.80;0.95;;;13.20;99.90;;;;;;4999168;28;20026;-73
2022/10/27 05:54:05;;;;;;;3.95;1.20;;;13.20;99.90;;;;;;5016895;28;20029;-74
2022/10/27 05:56:30;;;;;;;1.42;0.70;;;13.10;99.90;;;;;;5016799;28;20072;-73
2022/10/27 05:58:56;;;;;;;8.50;2.03;;;13.10;99.90;;;;;;4998865;28;20022;-74
2022/10/27 06:01:21;;;;;;;2.28;0.90;;;13.10;99.90;;;;;;4999031;28;20076;-73
2022/10/27 06:03:47;;;;;;;3.97;1.30;;;13.10;99.90;;;;;;5016527;28;20137;-73
2022/10/27 06:06:12;;;;;;;9.23;1.42;;;13.10;99.90;;;;;;5016554;28;20030;-74
2022/10/27 06:08:38;;;;;;;9.48;0.88;;;13.10;99.90;;;;;;4998816;28;20152;-73
2022/10/27 06:11:04;;;;;;;3.40;1.15;;;13.10;99.90;;;;;;5016489;28;20057;-73
2022/10/27 06:13:29;;;;;;;2.25;0.82;;;13.00;99.90;;;;;;5016263;28;20024;-73
2022/10/27 06:15:55;;;;;;;3.30;0.70;;;13.00;99.90;;;;;;5016582;28;20393;-73
2022/10/27 06:18:21;;;;;;;1.65;0.70;;;13.00;99.90;;;;;;5016443;28;20101;-74
2022/10/27 06:20:46;;;;;;;5.75;1.08;;;13.00;99.90;;;;;;5016297;28;20022;-73
2022/10/27 06:23:12;;;;;;;2.70;0.52;;;13.10;99.90;;;;;;5016579;28;20026;-73
2022/10/27 06:25:38;;;;;;;2.63;1.02;;;13.00;99.90;;;;;;5016203;28;20481;-73
2022/10/27 06:28:03;;;;;;;7.80;1.48;;;13.10;99.90;;;;;;5016033;28;20477;-75
2022/10/27 06:30:29;;;;;;;4.68;0.80;;;13.10;99.90;;;;;;4998504;28;20396;-74
2022/10/27 06:32:54;;;;;;;7.55;2.10;;;13.10;99.90;;;;;;5015354;28;20020;-75
2022/10/27 06:35:20;;;;;;;4.43;0.90;;;13.20;99.90;;;;;;5015894;28;20029;-74
2022/10/27 06:37:46;;;;;;;4.70;0.88;;;13.20;99.90;;;;;;5015782;28;20026;-75
2022/10/27 06:40:15;;;;;;;8.05;0.95;;;13.20;99.90;;;;;;4998212;28;20112;-74
2022/10/27 06:42:40;;;;;;;24.35;1.85;;;13.20;99.90;;;;;;5015769;28;20022;-75
2022/10/27 06:45:07;;;;;;;4.18;1.00;;;13.20;99.90;;;;;;4998214;28;20072;-75
2022/10/27 06:47:33;;;;;;;8.10;1.40;;;13.20;99.90;;;;;;5015734;28;20535;-75
2022/10/27 06:49:58;;;;;;;5.03;1.05;;;13.20;99.90;;;;;;5015655;28;20061;-74
2022/10/27 06:52:24;;;;;;;6.10;1.50;;;13.30;99.90;;;;;;5015583;28;20030;-75
2022/10/27 06:54:50;;;;;;;2.38;1.00;;;13.20;99.90;;;;;;5016157;28;20022;-74
2022/10/27 06:57:16;;;;;;;5.75;1.60;;;13.30;99.90;;;;;;5015505;28;20037;-75
2022/10/27 06:59:41;;;;;;;4.10;0.88;;;13.30;99.90;;;;;;5015643;28;20097;-73
2022/10/27 07:02:13;;;;;;;2.28;1.08;;;13.40;99.90;;;;;;5015421;28;20029;-73
2022/10/27 07:04:39;;;;;;;9.18;1.50;;;13.40;99.90;;;;;;5016096;28;20045;-73
2022/10/27 07:07:05;;;;;;;6.30;1.42;;;13.40;99.90;;;;;;5015429;28;20029;-73
2022/10/27 07:09:31;;;;;;;8.02;1.17;;;13.40;99.90;;;;;;4997838;28;20017;-73
2022/10/27 07:11:56;;;;;;;6.30;1.15;;;13.40;99.90;;;;;;5015411;28;20104;-72
2022/10/27 07:14:22;;;;;;;7.07;1.67;;;13.40;99.90;;;;;;5015198;28;20026;-73
2022/10/27 07:16:47;;;;;;;5.80;0.85;;;13.40;99.90;;;;;;5015257;28;20571;-73
2022/10/27 07:19:13;;;;;;;5.68;1.40;;;13.40;99.90;;;;;;5015199;28;20026;-73
2022/10/27 07:21:38;;;;;;;15.90;1.55;;;13.40;99.90;;;;;;5015143;28;20029;-74
2022/10/27 07:24:04;;;;;;;2.53;1.08;;;13.40;99.90;;;;;;5015042;28;20370;-73
2022/10/27 07:26:30;;;;;;;2.10;0.90;;;13.40;99.90;;;;;;5015426;28;20018;-72
2022/10/27 07:28:55;;;;;;;6.70;1.27;;;13.40;99.90;;;;;;4997521;28;20385;-72
2022/10/27 07:31:21;;;;;;;2.17;1.00;;;13.40;99.90;;;;;;5014963;28;20389;-72
2022/10/27 07:33:46;;;;;;;4.32;1.75;;;13.40;99.90;;;;;;5014720;28;20389;-72
2022/10/27 07:36:12;;;;;;;5.78;0.80;;;13.50;99.90;;;;;;5014818;28;20026;-72
2022/10/27 07:38:38;;;;;;;1.80;0.55;;;13.50;99.90;;;;;;5015120;28;20104;-72
2022/10/27 07:41:04;;;;;;;5.88;1.23;;;13.60;99.90;;;;;;5014593;28;20389;-72
2022/10/27 07:43:30;;;;;;;2.08;1.23;;;13.60;99.90;;;;;;4996229;28;20073;-73
2022/10/27 07:45:56;;;;;;;8.95;1.05;;;13.60;99.90;;;;;;5014601;28;20029;-73
2022/10/27 07:48:25;;;;;;;3.55;0.93;;;13.60;99.90;;;;;;5024305;23;20069;-76
2022/10/27 07:50:51;;;;;;;2.65;1.00;;;13.60;99.90;;;;;;5014726;28;20030;-76
2022/10/27 07:53:17;;;;;;;6.32;1.38;;;13.70;99.90;;;;;;4997180;28;20026;-76
2022/10/27 07:55:43;;;;;;;4.10;1.42;;;13.80;99.90;;;;;;5014813;28;20026;-75
2022/10/27 07:58:16;;;;;;;3.97;1.00;;;13.60;99.90;;;;;;5014668;28;20408;-76
2022/10/27 08:00:46;;;;;;;5.25;1.05;;;13.80;99.90;;;;;;5014519;28;20037;-76
2022/10/27 08:03:18;;;;;;;2.08;0.90;;;14.10;99.90;;;;;;4996821;28;20071;-76
2022/10/27 08:05:43;;;;;;;8.18;0.73;;;14.10;99.90;;;;;;5014405;28;20061;-76
2022/10/27 08:08:10;;;;;;;1.20;0.63;;;14.10;99.90;;;;;;5014412;28;20014;-76
2022/10/27 08:10:38;;;;;;;2.90;0.45;;;14.20;99.90;;;;;;5014393;28;20388;-75
2022/10/27 08:13:04;;;;;;;16.05;1.77;;;14.30;99.90;;;;;;4996593;28;20107;-76
2022/10/27 08:15:30;;;;;;;2.80;0.80;;;14.50;99.90;;;;;;4996737;28;20019;-76
2022/10/27 08:18:00;;;;;;;6.82;1.20;;;14.50;99.90;;;;;;5014241;28;20072;-75
2022/10/27 08:20:27;;;;;;;3.17;0.90;;;14.60;99.90;;;;;;5014129;28;20025;-76
2022/10/27 08:22:57;;;;;;;5.15;1.02;;;14.70;99.90;;;;;;5014138;28;20026;-76
2022/10/27 08:25:23;;;;;;;4.32;1.10;;;14.70;99.90;;;;;;5014208;28;20057;-76
2022/10/27 08:27:49;;;;;;;5.10;0.98;;;14.80;99.90;;;;;;5014123;28;20022;-76
2022/10/27 08:30:14;;;;;;;4.43;1.35;;;14.80;99.90;;;;;;5014098;28;20049;-76
2022/10/27 08:32:40;;;;;;;3.70;0.88;;;14.90;99.90;;;;;;5014107;28;20018;-76
2022/10/27 08:35:06;;;;;;;5.30;1.05;;;15.00;99.90;;;;;;5013938;28;20026;-76
2022/10/27 08:37:31;;;;;;;3.35;0.88;;;15.10;99.90;;;;;;4996166;28;20033;-75
2022/10/27 08:39:57;;;;;;;3.38;0.65;;;15.30;99.90;;;;;;4996723;28;20489;-76
2022/10/27 08:42:30;;;;;;;2.65;0.85;;;15.40;99.90;;;;;;4996532;28;20473;-74
2022/10/27 08:45:02;;;;;;;11.25;1.05;;;15.50;99.90;;;;;;5013782;28;20018;-73
2022/10/27 08:47:28;;;;;;;0.95;0.47;;;15.70;99.90;;;;;;5013800;28;20025;-73
2022/10/27 08:50:03;;;;;;;2.17;0.47;;;15.80;99.90;;;;;;5013584;28;20044;-73
2022/10/27 08:52:39;;;;;;;4.20;0.40;;;15.90;99.90;;;;;;4996029;28;20080;-74
2022/10/27 08:55:13;;;;;;;2.88;0.70;;;16.00;99.90;;;;;;5013463;28;20390;-73
2022/10/27 08:57:54;;;;;;;2.45;0.40;;;16.10;99.90;;;;;;5013545;28;20485;-73
2022/10/27 09:00:19;;;;;;;2.65;0.20;;;16.20;99.90;;;;;;5013509;28;20034;-74
2022/10/27 09:02:54;;;;;;;2.33;0.22;;;16.40;99.90;;;;;;5013485;28;20022;-74
2022/10/27 09:05:35;;;;;;;2.15;0.25;;;16.50;99.90;;;;;;5013888;28;20385;-73
2022/10/27 09:08:34;;;;;;;2.75;0.30;;;16.70;99.90;;;;;;5014018;28;20018;-74
2022/10/27 09:11:11;;;;;;;;;;;16.80;99.90;;;;;;5013938;28;20106;-74
2022/10/27 09:13:49;;;;;;;3.03;0.77;;;16.80;99.90;;;;;;4996004;28;19905;-73
2022/10/27 09:16:32;;;;;;;1.33;0.20;;;16.80;99.90;;;;;;4995842;28;20029;-73
2022/10/27 09:18:59;;;;;;;2.88;0.30;;;16.80;99.90;;;;;;4995776;28;20133;-74
2022/10/27 09:21:26;;;;;;;2.40;0.30;;;16.80;99.90;;;;;;5013135;28;20109;-74
2022/10/27 09:23:55;;;;;;;1.05;0.20;;;16.80;99.90;;;;;;4995625;28;20033;-73
2022/10/27 09:26:27;;;;;;;4.30;0.35;;;16.70;99.90;;;;;;5013411;28;20021;-73
2022/10/27 09:28:53;;;;;;;4.78;0.65;;;16.70;99.90;;;;;;5013925;28;20095;-73
2022/10/27 09:31:34;;;;;;;2.72;0.43;;;16.70;99.90;;;;;;4995709;28;20029;-73
2022/10/27 09:34:17;;;;;;;2.35;0.30;;;16.70;99.90;;;;;;5013267;28;20563;-74
2022/10/27 09:36:42;;;;;;;1.83;0.20;;;16.60;99.90;;;;;;5013267;28;20105;-73
2022/10/27 09:39:09;;;;;;;2.45;0.45;;;16.70;99.90;;;;;;5013239;28;20102;-74
2022/10/27 09:41:35;;;;;;;6.45;0.50;;;16.70;99.90;;;;;;5013108;28;20030;-73
2022/10/27 09:44:02;;;;;;;4.82;0.40;;;16.70;99.90;;;;;;5013093;28;20026;-74
2022/10/27 09:46:29;;;;;;;4.25;0.40;;;16.70;99.90;;;;;;5013746;28;20072;-73
2022/10/27 09:48:59;;;;;;;1.83;0.10;;;16.70;99.90;;;;;;5013326;28;20045;-73
2022/10/27 09:51:37;;;;;;;5.85;0.45;;;16.70;99.90;;;;;;5013141;28;20018;-74
2022/10/27 09:54:04;;;;;;;1.33;0.30;;;16.80;99.90;;;;;;5012966;28;20033;-73
2022/10/27 09:56:34;;;;;;;3.05;0.20;;;16.90;99.90;;;;;;5012983;28;20017;-72
2022/10/27 09:59:02;;;;;;;5.55;0.50;;;16.90;99.90;;;;;;4995401;28;20033;-72
2022/10/27 10:01:48;;;;;;;4.40;0.43;;;17.00;99.90;;;;;;4995376;28;20029;-72
2022/10/27 10:04:21;;;;;;;2.65;0.17;;;17.20;99.90;;;;;;5012936;28;20022;-73
2022/10/27 10:06:56;;;;;;;2.55;0.25;;;17.30;99.90;;;;;;5013500;28;20022;-73
2022/10/27 10:09:30;;;;;;;2.05;0.25;;;17.50;99.90;;;;;;5016720;28;20022;-73
2022/10/27 10:12:24;;;;;;;1.95;0.28;;;17.60;99.90;;;;;;5016659;28;20492;-73
2022/10/27 10:14:51;;;;;;;4.80;0.40;;;17.70;99.90;;;;;;5016373;28;20400;-73
2022/10/27 10:17:26;;;;;;;0.90;0.08;;;17.80;99.90;;;;;;5016369;28;20489;-72
2022/10/27 10:19:55;;;;;;;2.00;0.50;;;17.90;99.90;;;;;;5016743;28;20029;-77
2022/10/27 10:22:29;;;;;;;3.92;0.73;;;17.80;99.90;;;;;;4998988;28;20029;-76
2022/10/27 10:25:05;;;;;;;0.80;0.10;;;17.80;99.90;;;;;;5016968;28;20378;-76
2022/10/27 10:27:34;;;;;;;1.88;0.32;;;17.80;99.90;;;;;;4998697;28;20105;-72
2022/10/27 10:30:04;;;;;;;1.08;0.10;;;17.80;99.90;;;;;;5016455;28;20097;-72
2022/10/27 10:32:36;;;;;;;2.38;0.75;;;17.80;99.90;;;;;;5016232;28;20022;-72
2022/10/27 10:35:40;;;;;;;3.13;0.20;;;17.80;99.90;;;;;;5016146;28;20034;-72
2022/10/27 10:38:37;;;;;;;2.85;0.80;;;17.80;99.90;;;;;;5016799;28;20022;-72
2022/10/27 10:41:17;;;;;;;1.88;0.20;;;17.80;99.90;;;;;;5016047;28;20025;-72
2022/10/27 10:43:42;;;;;;;1.40;0.10;;;17.90;99.90;;;;;;5016343;28;20057;-72
2022/10/27 10:46:37;;;;;;;2.03;0.28;;;17.90;99.90;;;;;;5015963;28;20049;-72
2022/10/27 10:49:03;;;;;;;2.75;0.03;;;17.90;99.90;;;;;;5013262;28;20417;-72
2022/10/27 10:51:32;;;;;;;3.30;0.38;;;18.00;99.90;;;;;;5015788;28;20026;-72
2022/10/27 10:54:07;;;;;;;2.13;0.10;;;18.00;99.90;;;;;;5015592;28;20057;-72
2022/10/27 10:56:36;;;;;;;2.22;0.38;;;18.10;99.90;;;;;;4998255;28;20021;-75
2022/10/27 10:59:13;;;;;;;2.15;0.13;;;18.10;99.90;;;;;;4997941;28;20504;-75
2022/10/27 11:01:54;;;;;;;2.60;0.20;;;18.10;99.90;;;;;;5015509;28;20105;-75
2022/10/27 11:04:26;;;;;;;2.67;0.52;;;18.20;99.90;;;;;;5015304;28;20100;-75
2022/10/27 11:07:13;;;;;;;1.30;0.30;;;18.20;99.90;;;;;;4997897;28;20022;-75
2022/10/27 11:09:44;;;;;;;1.55;0.28;;;18.30;99.90;;;;;;4997842;28;20565;-75
2022/10/27 11:12:43;;;;;;;4.80;0.10;;;18.30;99.90;;;;;;4997933;28;20509;-75
2022/10/27 11:15:19;;;;;;;3.78;0.38;;;18.20;99.90;;;;;;5015427;28;20092;-75
2022/10/27 11:17:48;;;;;;;1.20;0.10;;;18.30;99.90;;;;;;4997596;28;20086;-75
2022/10/27 11:20:20;;;;;;;3.85;0.25;;;18.30;99.90;;;;;;4997584;28;20064;-75
2022/10/27 11:22:49;;;;;;;2.80;0.20;;;18.30;99.90;;;;;;5015083;28;20045;-75
2022/10/27 11:25:22;;;;;;;1.60;0.47;;;18.40;99.90;;;;;;5015618;28;20018;-72
2022/10/27 11:28:17;;;;;;;9.80;0.70;;;18.50;99.90;;;;;;5015135;28;20453;-72
2022/10/27 11:30:59;;;;;;;8.57;0.43;;;18.60;99.90;;;;;;5015525;28;20054;-72
2022/10/27 11:33:31;;;;;;;0.82;0.22;;;18.70;99.90;;;;;;5014957;28;20236;-72
2022/10/27 11:36:12;;;;;;;1.40;0.30;;;18.80;99.90;;;;;;5015489;28;20049;-72
2022/10/27 11:38:58;;;;;;;5.03;0.45;;;18.80;99.90;;;;;;4997227;28;20111;-72
2022/10/27 11:41:34;;;;;;;1.75;0.10;;;18.70;99.90;;;;;;4997144;28;20037;-72
2022/10/27 11:44:21;;;;;;;2.13;0.32;;;18.70;99.90;;;;;;5014755;28;20014;-72
2022/10/27 11:47:03;;;;;;;0.65;0.00;;;18.70;99.90;;;;;;5014563;28;20021;-72
2022/10/27 11:49:40;;;;;;;2.80;0.08;;;18.70;99.90;;;;;;4996804;28;20030;-72
2022/10/27 11:52:16;;;;;;;0.95;0.17;;;18.70;99.90;;;;;;5014543;28;20070;-76
2022/10/27 11:54:46;;;;;;;1.38;0.22;;;18.70;99.90;;;;;;4996797;28;20125;-73
2022/10/27 11:57:21;;;;;;;2.45;0.00;;;18.70;99.90;;;;;;5014301;28;20091;-73
2022/10/27 11:59:55;;;;;;;1.67;0.20;;;18.70;99.90;;;;;;5015147;28;20018;-72
2022/10/27 12:02:34;;;;;;;4.30;0.10;;;18.70;99.90;;;;;;5014809;28;20034;-72
2022/10/27 12:05:10;;;;;;;2.55;0.73;;;18.70;99.90;;;;;;4996667;28;20134;-72
2022/10/27 12:07:49;;;;;;;4.30;0.10;;;18.70;99.90;;;;;;5014887;28;20029;-72
2022/10/27 12:11:00;;;;;;;1.33;0.00;;;18.80;99.90;;;;;;5014321;28;20088;-72
2022/10/27 12:13:50;;;;;;;4.38;0.20;;;18.70;99.90;;;;;;5014768;28;20056;-72
2022/10/27 12:16:24;;;;;;;2.60;0.00;;;18.60;99.90;;;;;;4997003;28;20026;-72
2022/10/27 12:18:58;;;;;;;4.47;0.22;;;18.70;99.90;;;;;;5014211;28;20026;-72
2022/10/27 12:22:13;;;;;;;2.47;0.10;;;18.70;99.90;;;;;;5014073;28;20029;-72
2022/10/27 12:24:47;;;;;;;4.03;0.10;;;18.70;99.90;;;;;;4911408;28;20472;-72
2022/10/27 12:27:24;;;;;;;0.60;0.00;;;18.80;99.90;;;;;;4996472;28;20026;-72
2022/10/27 12:29:55;;;;;;;8.63;0.10;;;18.80;99.90;;;;;;5013790;28;20104;-77
2022/10/27 12:32:30;;;;;;;4.00;0.32;;;18.90;99.90;;;;;;4996499;28;20381;-73
2022/10/27 12:35:22;;;;;;;5.15;0.38;;;19.00;99.90;;;;;;5013863;28;20489;-73
2022/10/27 12:38:05;;;;;;;1.25;0.10;;;19.10;99.90;;;;;;4995356;28;20044;-73
2022/10/27 12:40:39;;;;;;;2.28;0.10;;;19.30;99.90;;;;;;5014400;28;20501;-73
2022/10/27 12:43:16;;;;;;;4.28;0.65;;;19.30;99.90;;;;;;5013808;28;20026;-73
2022/10/27 12:53:17;;;;;;;1.92;0.15;;;19.40;99.90;;;;;;5016287;28;20149;-73
2022/10/27 12:55:53;;;;;;;2.42;0.00;;;19.40;99.90;;;;;;4915736;29;20483;-73
2022/10/27 12:58:28;;;;;;;1.67;0.00;;;19.40;99.90;;;;;;5010769;28;20512;-73
2022/10/27 13:01:14;;;;;;;0.73;0.10;;;19.40;99.90;;;;;;5014142;28;20401;-73
2022/10/27 13:04:23;;;;;;;1.40;0.00;;;19.40;99.90;;;;;;4995908;28;20061;-73
2022/10/27 13:07:17;;;;;;;3.85;0.10;;;19.40;99.90;;;;;;5013763;28;20414;-73
2022/10/27 13:10:01;;;;;;;2.95;0.22;;;19.40;99.90;;;;;;5013627;28;20457;-73
2022/10/27 13:12:53;;;;;;;2.83;0.28;;;19.50;99.90;;;;;;5014049;28;20408;-71